sensor_id;sensor_type;location;lat;lon;timestamp;temperature;humidity
7704;DHT22;3894;49.700;10.770;2023-12-20T00:00:26;4.60;99.90
7704;DHT22;3894;49.700;10.770;2023-12-20T00:02:52;4.50;99.90
7704;DHT22;3894;49.700;10.770;2023-12-20T00:05:18;4.60;99.90
7704;DHT22;3894;49.700;10.770;2023-12-20T00:07:43;4.60;99.90
7704;DHT22;3894;49.700;10.770;2023-12-20T00:10:09;4.60;99.90
7704;DHT22;3894;49.700;10.770;2023-12-20T00:12:35;4.60;99.90
7704;DHT22;3894;49.700;10.770;2023-12-20T00:15:01;4.60;99.90
7704;DHT22;3894;49.700;10.770;2023-12-20T00:17:26;4.60;99.90
7704;DHT22;3894;49.700;10.770;2023-12-20T00:19:52;4.60;99.90
7704;DHT22;3894;49.700;10.770;2023-12-20T00:22:17;4.60;99.90
7704;DHT22;3894;49.700;10.770;2023-12-20T00:24:43;4.60;99.90
7704;DHT22;3894;49.700;10.770;2023-12-20T00:27:08;4.60;99.90
7704;DHT22;3894;49.700;10.770;2023-12-20T00:29:34;4.60;99.90
7704;DHT22;3894;49.700;10.770;2023-12-20T00:31:59;4.50;99.90
7704;DHT22;3894;49.700;10.770;2023-12-20T00:34:25;4.60;99.90
7704;DHT22;3894;49.700;10.770;2023-12-20T00:36:50;4.60;99.90
7704;DHT22;3894;49.700;10.770;2023-12-20T00:39:16;4.60;99.90
7704;DHT22;3894;49.700;10.770;2023-12-20T00:41:41;4.60;99.90
7704;DHT22;3894;49.700;10.770;2023-12-20T00:44:07;4.60;99.90
7704;DHT22;3894;49.700;10.770;2023-12-20T00:46:33;4.60;99.90
7704;DHT22;3894;49.700;10.770;2023-12-20T00:48:58;4.60;99.90
7704;DHT22;3894;49.700;10.770;2023-12-20T00:51:24;4.60;99.90
7704;DHT22;3894;49.700;10.770;2023-12-20T00:53:50;4.60;99.90
7704;DHT22;3894;49.700;10.770;2023-12-20T00:56:20;4.60;99.90
7704;DHT22;3894;49.700;10.770;2023-12-20T00:58:45;4.60;99.90
7704;DHT22;3894;49.700;10.770;2023-12-20T01:01:11;4.60;99.90
7704;DHT22;3894;49.700;10.770;2023-12-20T01:03:36;4.60;99.90
7704;DHT22;3894;49.700;10.770;2023-12-20T01:06:02;4.60;99.90
7704;DHT22;3894;49.700;10.770;2023-12-20T01:08:29;4.60;99.90
7704;DHT22;3894;49.700;10.770;2023-12-20T01:10:55;4.60;99.90
7704;DHT22;3894;49.700;10.770;2023-12-20T01:13:21;4.60;99.90
7704;DHT22;3894;49.700;10.770;2023-12-20T01:15:46;4.60;99.90
7704;DHT22;3894;49.700;10.770;2023-12-20T01:18:13;4.60;99.90
7704;DHT22;3894;49.700;10.770;2023-12-20T01:20:39;4.60;99.90
7704;DHT22;3894;49.700;10.770;2023-12-20T01:23:04;4.60;99.90
7704;DHT22;3894;49.700;10.770;2023-12-20T01:25:30;4.60;99.90
7704;DHT22;3894;49.700;10.770;2023-12-20T01:27:55;4.50;99.90
7704;DHT22;3894;49.700;10.770;2023-12-20T01:30:21;4.50;99.90
7704;DHT22;3894;49.700;10.770;2023-12-20T01:32:46;4.50;99.90
7704;DHT22;3894;49.700;10.770;2023-12-20T01:35:12;4.50;99.90
7704;DHT22;3894;49.700;10.770;2023-12-20T01:37:39;4.50;99.90
7704;DHT22;3894;49.700;10.770;2023-12-20T01:40:06;4.50;99.90
7704;DHT22;3894;49.700;10.770;2023-12-20T01:42:33;4.50;99.90
7704;DHT22;3894;49.700;10.770;2023-12-20T01:44:59;4.50;99.90
7704;DHT22;3894;49.700;10.770;2023-12-20T01:47:24;4.50;99.90
7704;DHT22;3894;49.700;10.770;2023-12-20T01:49:52;4.40;99.90
7704;DHT22;3894;49.700;10.770;2023-12-20T01:52:19;4.40;99.90
7704;DHT22;3894;49.700;10.770;2023-12-20T01:54:47;4.40;99.90
7704;DHT22;3894;49.700;10.770;2023-12-20T01:57:13;4.40;99.90
7704;DHT22;3894;49.700;10.770;2023-12-20T01:59:39;4.40;99.90
7704;DHT22;3894;49.700;10.770;2023-12-20T02:02:05;4.40;99.90
7704;DHT22;3894;49.700;10.770;2023-12-20T02:04:32;4.40;99.90
7704;DHT22;3894;49.700;10.770;2023-12-20T02:06:59;4.30;99.90
7704;DHT22;3894;49.700;10.770;2023-12-20T02:09:24;4.30;99.90
7704;DHT22;3894;49.700;10.770;2023-12-20T02:11:50;4.40;99.90
7704;DHT22;3894;49.700;10.770;2023-12-20T02:14:16;4.30;99.90
7704;DHT22;3894;49.700;10.770;2023-12-20T02:16:41;4.30;99.90
7704;DHT22;3894;49.700;10.770;2023-12-20T02:19:14;4.30;99.90
7704;DHT22;3894;49.700;10.770;2023-12-20T02:21:40;4.30;99.90
7704;DHT22;3894;49.700;10.770;2023-12-20T02:24:06;4.30;99.90
7704;DHT22;3894;49.700;10.770;2023-12-20T02:26:34;4.30;99.90
7704;DHT22;3894;49.700;10.770;2023-12-20T02:29:00;4.30;99.90
7704;DHT22;3894;49.700;10.770;2023-12-20T02:31:26;4.20;99.90
7704;DHT22;3894;49.700;10.770;2023-12-20T02:33:52;4.20;99.90
7704;DHT22;3894;49.700;10.770;2023-12-20T02:36:18;4.20;99.90
7704;DHT22;3894;49.700;10.770;2023-12-20T02:38:45;4.20;99.90
7704;DHT22;3894;49.700;10.770;2023-12-20T02:41:11;4.20;99.90
7704;DHT22;3894;49.700;10.770;2023-12-20T02:43:37;4.20;99.90
7704;DHT22;3894;49.700;10.770;2023-12-20T02:46:02;4.20;99.90
7704;DHT22;3894;49.700;10.770;2023-12-20T02:48:28;4.20;99.90
7704;DHT22;3894;49.700;10.770;2023-12-20T02:50:54;4.20;99.90
7704;DHT22;3894;49.700;10.770;2023-12-20T02:53:20;4.20;99.90
7704;DHT22;3894;49.700;10.770;2023-12-20T02:55:45;4.20;99.90
7704;DHT22;3894;49.700;10.770;2023-12-20T02:58:11;4.20;99.90
7704;DHT22;3894;49.700;10.770;2023-12-20T03:00:37;4.20;99.90
7704;DHT22;3894;49.700;10.770;2023-12-20T03:03:03;4.10;99.90
7704;DHT22;3894;49.700;10.770;2023-12-20T03:05:28;4.10;99.90
7704;DHT22;3894;49.700;10.770;2023-12-20T03:07:54;4.10;99.90
7704;DHT22;3894;49.700;10.770;2023-12-20T03:10:20;4.10;99.90
7704;DHT22;3894;49.700;10.770;2023-12-20T03:12:45;4.10;99.90
7704;DHT22;3894;49.700;10.770;2023-12-20T03:15:13;4.10;99.90
7704;DHT22;3894;49.700;10.770;2023-12-20T03:17:38;4.10;99.90
7704;DHT22;3894;49.700;10.770;2023-12-20T03:20:04;4.10;99.90
7704;DHT22;3894;49.700;10.770;2023-12-20T03:22:30;4.10;99.90
7704;DHT22;3894;49.700;10.770;2023-12-20T03:24:55;4.10;99.90
7704;DHT22;3894;49.700;10.770;2023-12-20T03:27:21;4.10;99.90
7704;DHT22;3894;49.700;10.770;2023-12-20T03:29:46;4.00;99.90
7704;DHT22;3894;49.700;10.770;2023-12-20T03:32:12;4.00;99.90
7704;DHT22;3894;49.700;10.770;2023-12-20T03:34:38;4.00;99.90
7704;DHT22;3894;49.700;10.770;2023-12-20T03:37:03;4.00;99.90
7704;DHT22;3894;49.700;10.770;2023-12-20T03:39:29;4.00;99.90
7704;DHT22;3894;49.700;10.770;2023-12-20T03:41:55;4.00;99.90
7704;DHT22;3894;49.700;10.770;2023-12-20T03:44:20;4.00;99.90
7704;DHT22;3894;49.700;10.770;2023-12-20T03:46:46;4.00;99.90
7704;DHT22;3894;49.700;10.770;2023-12-20T03:49:12;3.90;99.90
7704;DHT22;3894;49.700;10.770;2023-12-20T03:51:37;3.90;99.90
7704;DHT22;3894;49.700;10.770;2023-12-20T03:54:03;3.90;99.90
7704;DHT22;3894;49.700;10.770;2023-12-20T03:56:29;3.90;99.90
7704;DHT22;3894;49.700;10.770;2023-12-20T03:58:54;3.90;99.90
7704;DHT22;3894;49.700;10.770;2023-12-20T04:01:20;3.90;99.90
7704;DHT22;3894;49.700;10.770;2023-12-20T04:03:46;3.90;99.90
7704;DHT22;3894;49.700;10.770;2023-12-20T04:06:17;3.90;99.90
7704;DHT22;3894;49.700;10.770;2023-12-20T04:08:43;3.90;99.90
7704;DHT22;3894;49.700;10.770;2023-12-20T04:11:08;3.90;99.90
7704;DHT22;3894;49.700;10.770;2023-12-20T04:13:34;3.90;99.90
7704;DHT22;3894;49.700;10.770;2023-12-20T04:15:59;3.90;99.90
7704;DHT22;3894;49.700;10.770;2023-12-20T04:18:25;3.90;99.90
7704;DHT22;3894;49.700;10.770;2023-12-20T04:20:50;3.80;99.90
7704;DHT22;3894;49.700;10.770;2023-12-20T04:23:17;3.80;99.90
7704;DHT22;3894;49.700;10.770;2023-12-20T04:25:42;3.80;99.90
7704;DHT22;3894;49.700;10.770;2023-12-20T04:28:08;3.80;99.90
7704;DHT22;3894;49.700;10.770;2023-12-20T04:30:33;3.80;99.90
7704;DHT22;3894;49.700;10.770;2023-12-20T04:32:59;3.80;99.90
7704;DHT22;3894;49.700;10.770;2023-12-20T04:35:24;3.80;99.90
7704;DHT22;3894;49.700;10.770;2023-12-20T04:37:50;3.80;99.90
7704;DHT22;3894;49.700;10.770;2023-12-20T04:40:16;3.80;99.90
7704;DHT22;3894;49.700;10.770;2023-12-20T04:42:41;3.80;99.90
7704;DHT22;3894;49.700;10.770;2023-12-20T04:45:07;3.80;99.90
7704;DHT22;3894;49.700;10.770;2023-12-20T04:47:34;3.80;99.90
7704;DHT22;3894;49.700;10.770;2023-12-20T04:50:00;3.80;99.90
7704;DHT22;3894;49.700;10.770;2023-12-20T04:52:26;3.80;99.90
7704;DHT22;3894;49.700;10.770;2023-12-20T04:54:51;3.80;99.90
7704;DHT22;3894;49.700;10.770;2023-12-20T04:57:17;3.80;99.90
7704;DHT22;3894;49.700;10.770;2023-12-20T04:59:43;3.80;99.90
7704;DHT22;3894;49.700;10.770;2023-12-20T05:02:09;3.80;99.90
7704;DHT22;3894;49.700;10.770;2023-12-20T05:04:37;3.80;99.90
7704;DHT22;3894;49.700;10.770;2023-12-20T05:07:02;3.80;99.90
7704;DHT22;3894;49.700;10.770;2023-12-20T05:09:30;3.80;99.90
7704;DHT22;3894;49.700;10.770;2023-12-20T05:11:55;3.80;99.90
7704;DHT22;3894;49.700;10.770;2023-12-20T05:14:21;3.80;99.90
7704;DHT22;3894;49.700;10.770;2023-12-20T05:16:46;3.80;99.90
7704;DHT22;3894;49.700;10.770;2023-12-20T05:19:12;3.80;99.90
7704;DHT22;3894;49.700;10.770;2023-12-20T05:21:38;3.80;99.90
7704;DHT22;3894;49.700;10.770;2023-12-20T05:24:05;3.80;99.90
7704;DHT22;3894;49.700;10.770;2023-12-20T05:26:31;3.90;99.90
7704;DHT22;3894;49.700;10.770;2023-12-20T05:28:56;3.80;99.90
7704;DHT22;3894;49.700;10.770;2023-12-20T05:31:22;3.90;99.90
7704;DHT22;3894;49.700;10.770;2023-12-20T05:33:47;3.90;99.90
7704;DHT22;3894;49.700;10.770;2023-12-20T05:36:13;3.80;99.90
7704;DHT22;3894;49.700;10.770;2023-12-20T05:38:41;3.90;99.90
7704;DHT22;3894;49.700;10.770;2023-12-20T05:41:06;3.90;99.90
7704;DHT22;3894;49.700;10.770;2023-12-20T05:43:32;3.90;99.90
7704;DHT22;3894;49.700;10.770;2023-12-20T05:45:58;3.90;99.90
7704;DHT22;3894;49.700;10.770;2023-12-20T05:48:23;3.90;99.90
7704;DHT22;3894;49.700;10.770;2023-12-20T05:50:49;3.90;99.90
7704;DHT22;3894;49.700;10.770;2023-12-20T05:53:14;3.90;99.90
7704;DHT22;3894;49.700;10.770;2023-12-20T05:55:40;3.90;99.90
7704;DHT22;3894;49.700;10.770;2023-12-20T05:58:06;3.90;99.90
7704;DHT22;3894;49.700;10.770;2023-12-20T06:00:31;3.90;99.90
7704;DHT22;3894;49.700;10.770;2023-12-20T06:02:57;3.90;99.90
7704;DHT22;3894;49.700;10.770;2023-12-20T06:05:22;3.90;99.90
7704;DHT22;3894;49.700;10.770;2023-12-20T06:07:48;3.90;99.90
7704;DHT22;3894;49.700;10.770;2023-12-20T06:10:16;3.90;99.90
7704;DHT22;3894;49.700;10.770;2023-12-20T06:12:42;4.00;99.90
7704;DHT22;3894;49.700;10.770;2023-12-20T06:15:08;3.90;99.90
7704;DHT22;3894;49.700;10.770;2023-12-20T06:17:33;3.90;99.90
7704;DHT22;3894;49.700;10.770;2023-12-20T06:20:01;3.90;99.90
7704;DHT22;3894;49.700;10.770;2023-12-20T06:22:26;3.90;99.90
7704;DHT22;3894;49.700;10.770;2023-12-20T06:24:52;4.00;99.90
7704;DHT22;3894;49.700;10.770;2023-12-20T06:27:18;4.00;99.90
7704;DHT22;3894;49.700;10.770;2023-12-20T06:29:44;4.00;99.90
7704;DHT22;3894;49.700;10.770;2023-12-20T06:32:10;4.00;99.90
7704;DHT22;3894;49.700;10.770;2023-12-20T06:34:36;4.00;99.90
7704;DHT22;3894;49.700;10.770;2023-12-20T06:37:01;4.00;99.90
7704;DHT22;3894;49.700;10.770;2023-12-20T06:39:27;4.00;99.90
7704;DHT22;3894;49.700;10.770;2023-12-20T06:41:53;4.00;99.90
7704;DHT22;3894;49.700;10.770;2023-12-20T06:44:18;4.00;99.90
7704;DHT22;3894;49.700;10.770;2023-12-20T06:46:44;4.00;99.90
7704;DHT22;3894;49.700;10.770;2023-12-20T06:49:10;4.00;99.90
7704;DHT22;3894;49.700;10.770;2023-12-20T06:51:37;4.00;99.90
7704;DHT22;3894;49.700;10.770;2023-12-20T06:54:03;4.00;99.90
7704;DHT22;3894;49.700;10.770;2023-12-20T06:56:28;4.00;99.90
7704;DHT22;3894;49.700;10.770;2023-12-20T06:58:54;4.00;99.90
7704;DHT22;3894;49.700;10.770;2023-12-20T07:01:20;4.10;99.90
7704;DHT22;3894;49.700;10.770;2023-12-20T07:03:45;4.00;99.90
7704;DHT22;3894;49.700;10.770;2023-12-20T07:06:12;4.10;99.90
7704;DHT22;3894;49.700;10.770;2023-12-20T07:08:40;4.10;99.90
7704;DHT22;3894;49.700;10.770;2023-12-20T07:11:06;4.10;99.90
7704;DHT22;3894;49.700;10.770;2023-12-20T07:13:32;4.10;99.90
7704;DHT22;3894;49.700;10.770;2023-12-20T07:15:57;4.10;99.90
7704;DHT22;3894;49.700;10.770;2023-12-20T07:18:23;4.10;99.90
7704;DHT22;3894;49.700;10.770;2023-12-20T07:20:49;4.10;99.90
7704;DHT22;3894;49.700;10.770;2023-12-20T07:23:14;4.10;99.90
7704;DHT22;3894;49.700;10.770;2023-12-20T07:25:42;4.10;99.90
7704;DHT22;3894;49.700;10.770;2023-12-20T07:28:07;4.10;99.90
7704;DHT22;3894;49.700;10.770;2023-12-20T07:30:33;4.20;99.90
7704;DHT22;3894;49.700;10.770;2023-12-20T07:32:58;4.20;99.90
7704;DHT22;3894;49.700;10.770;2023-12-20T07:35:24;4.20;99.90
7704;DHT22;3894;49.700;10.770;2023-12-20T07:37:50;4.20;99.90
7704;DHT22;3894;49.700;10.770;2023-12-20T07:40:16;4.20;99.90
7704;DHT22;3894;49.700;10.770;2023-12-20T07:42:45;4.20;99.90
7704;DHT22;3894;49.700;10.770;2023-12-20T07:45:10;4.20;99.90
7704;DHT22;3894;49.700;10.770;2023-12-20T07:47:37;4.20;99.90
7704;DHT22;3894;49.700;10.770;2023-12-20T07:50:03;4.20;99.90
7704;DHT22;3894;49.700;10.770;2023-12-20T07:52:29;4.20;99.90
7704;DHT22;3894;49.700;10.770;2023-12-20T07:54:55;4.20;99.90
7704;DHT22;3894;49.700;10.770;2023-12-20T07:57:21;4.30;99.90
7704;DHT22;3894;49.700;10.770;2023-12-20T07:59:46;4.30;99.90
7704;DHT22;3894;49.700;10.770;2023-12-20T08:02:12;4.30;99.90
7704;DHT22;3894;49.700;10.770;2023-12-20T08:04:39;4.30;99.90
7704;DHT22;3894;49.700;10.770;2023-12-20T08:07:04;4.30;99.90
7704;DHT22;3894;49.700;10.770;2023-12-20T08:09:30;4.30;99.90
7704;DHT22;3894;49.700;10.770;2023-12-20T08:11:56;4.30;99.90
7704;DHT22;3894;49.700;10.770;2023-12-20T08:14:21;4.30;99.90
7704;DHT22;3894;49.700;10.770;2023-12-20T08:16:47;4.30;99.90
7704;DHT22;3894;49.700;10.770;2023-12-20T08:19:13;4.30;99.90
7704;DHT22;3894;49.700;10.770;2023-12-20T08:21:39;4.30;99.90
7704;DHT22;3894;49.700;10.770;2023-12-20T08:24:05;4.40;99.90
7704;DHT22;3894;49.700;10.770;2023-12-20T08:26:30;4.40;99.90
7704;DHT22;3894;49.700;10.770;2023-12-20T08:28:56;4.40;99.90
7704;DHT22;3894;49.700;10.770;2023-12-20T08:31:22;4.40;99.90
7704;DHT22;3894;49.700;10.770;2023-12-20T08:33:48;4.40;99.90
7704;DHT22;3894;49.700;10.770;2023-12-20T08:36:14;4.40;99.90
7704;DHT22;3894;49.700;10.770;2023-12-20T08:38:40;4.40;99.90
7704;DHT22;3894;49.700;10.770;2023-12-20T08:41:06;4.50;99.90
7704;DHT22;3894;49.700;10.770;2023-12-20T08:43:33;4.60;99.90
7704;DHT22;3894;49.700;10.770;2023-12-20T08:45:59;4.70;99.90
7704;DHT22;3894;49.700;10.770;2023-12-20T08:48:24;4.70;99.90
7704;DHT22;3894;49.700;10.770;2023-12-20T08:50:50;4.80;99.90
7704;DHT22;3894;49.700;10.770;2023-12-20T08:53:18;4.90;99.90
7704;DHT22;3894;49.700;10.770;2023-12-20T08:55:44;4.90;99.90
7704;DHT22;3894;49.700;10.770;2023-12-20T08:58:10;4.90;99.90
7704;DHT22;3894;49.700;10.770;2023-12-20T09:00:35;4.90;99.90
7704;DHT22;3894;49.700;10.770;2023-12-20T09:03:01;4.90;99.90
7704;DHT22;3894;49.700;10.770;2023-12-20T09:05:27;4.90;99.90
7704;DHT22;3894;49.700;10.770;2023-12-20T09:07:53;5.00;99.90
7704;DHT22;3894;49.700;10.770;2023-12-20T09:10:19;5.00;99.90
7704;DHT22;3894;49.700;10.770;2023-12-20T09:12:56;5.00;99.90
7704;DHT22;3894;49.700;10.770;2023-12-20T09:15:26;4.90;99.90
7704;DHT22;3894;49.700;10.770;2023-12-20T09:17:52;5.00;99.90
7704;DHT22;3894;49.700;10.770;2023-12-20T09:20:18;5.00;99.90
7704;DHT22;3894;49.700;10.770;2023-12-20T09:22:44;5.00;99.90
7704;DHT22;3894;49.700;10.770;2023-12-20T09:25:11;5.00;99.90
7704;DHT22;3894;49.700;10.770;2023-12-20T09:27:38;5.10;99.90
7704;DHT22;3894;49.700;10.770;2023-12-20T09:30:04;5.10;99.90
7704;DHT22;3894;49.700;10.770;2023-12-20T09:32:31;5.10;99.90
7704;DHT22;3894;49.700;10.770;2023-12-20T09:34:56;5.10;99.90
7704;DHT22;3894;49.700;10.770;2023-12-20T09:37:25;5.20;99.90
7704;DHT22;3894;49.700;10.770;2023-12-20T09:39:51;5.20;99.90
7704;DHT22;3894;49.700;10.770;2023-12-20T09:42:24;5.20;99.90
7704;DHT22;3894;49.700;10.770;2023-12-20T09:44:54;5.30;99.90
7704;DHT22;3894;49.700;10.770;2023-12-20T09:47:22;5.30;99.90
7704;DHT22;3894;49.700;10.770;2023-12-20T09:49:50;5.30;99.90
7704;DHT22;3894;49.700;10.770;2023-12-20T09:52:18;5.20;99.90
7704;DHT22;3894;49.700;10.770;2023-12-20T09:54:45;5.20;99.90
7704;DHT22;3894;49.700;10.770;2023-12-20T09:57:12;5.20;99.90
7704;DHT22;3894;49.700;10.770;2023-12-20T09:59:38;5.10;99.90
7704;DHT22;3894;49.700;10.770;2023-12-20T10:02:09;5.10;99.90
7704;DHT22;3894;49.700;10.770;2023-12-20T10:04:36;5.10;99.90
7704;DHT22;3894;49.700;10.770;2023-12-20T10:07:02;5.10;99.90
7704;DHT22;3894;49.700;10.770;2023-12-20T10:09:31;5.10;99.90
7704;DHT22;3894;49.700;10.770;2023-12-20T10:11:57;5.20;99.90
7704;DHT22;3894;49.700;10.770;2023-12-20T10:14:23;5.10;99.90
7704;DHT22;3894;49.700;10.770;2023-12-20T10:16:49;5.10;99.90
7704;DHT22;3894;49.700;10.770;2023-12-20T10:19:17;5.10;99.90
7704;DHT22;3894;49.700;10.770;2023-12-20T10:21:43;5.10;99.90
7704;DHT22;3894;49.700;10.770;2023-12-20T10:24:17;5.10;99.90
7704;DHT22;3894;49.700;10.770;2023-12-20T10:26:43;5.00;99.90
7704;DHT22;3894;49.700;10.770;2023-12-20T10:29:11;5.00;99.90
7704;DHT22;3894;49.700;10.770;2023-12-20T10:31:37;5.00;99.90
7704;DHT22;3894;49.700;10.770;2023-12-20T10:34:04;5.00;99.90
7704;DHT22;3894;49.700;10.770;2023-12-20T10:36:31;5.10;99.90
7704;DHT22;3894;49.700;10.770;2023-12-20T10:38:58;5.20;99.90
7704;DHT22;3894;49.700;10.770;2023-12-20T10:41:33;5.30;99.90
7704;DHT22;3894;49.700;10.770;2023-12-20T10:44:01;5.30;99.90
7704;DHT22;3894;49.700;10.770;2023-12-20T10:46:27;5.30;99.90
7704;DHT22;3894;49.700;10.770;2023-12-20T10:48:56;5.30;99.90
7704;DHT22;3894;49.700;10.770;2023-12-20T10:51:23;5.30;99.90
7704;DHT22;3894;49.700;10.770;2023-12-20T10:53:50;5.30;99.90
7704;DHT22;3894;49.700;10.770;2023-12-20T10:56:17;5.20;99.90
7704;DHT22;3894;49.700;10.770;2023-12-20T10:58:49;5.20;99.90
7704;DHT22;3894;49.700;10.770;2023-12-20T11:01:17;5.20;99.90
7704;DHT22;3894;49.700;10.770;2023-12-20T11:03:53;5.30;99.90
7704;DHT22;3894;49.700;10.770;2023-12-20T11:06:36;5.30;99.90
7704;DHT22;3894;49.700;10.770;2023-12-20T11:09:22;5.30;99.90
7704;DHT22;3894;49.700;10.770;2023-12-20T11:12:13;5.30;99.90
7704;DHT22;3894;49.700;10.770;2023-12-20T11:14:42;5.30;99.90
7704;DHT22;3894;49.700;10.770;2023-12-20T11:17:11;5.30;99.90
7704;DHT22;3894;49.700;10.770;2023-12-20T11:22:29;5.30;99.90
7704;DHT22;3894;49.700;10.770;2023-12-20T11:25:00;5.30;99.90
7704;DHT22;3894;49.700;10.770;2023-12-20T11:27:27;5.30;99.90
7704;DHT22;3894;49.700;10.770;2023-12-20T11:29:55;5.30;99.90
7704;DHT22;3894;49.700;10.770;2023-12-20T11:37:37;5.40;99.90
7704;DHT22;3894;49.700;10.770;2023-12-20T11:40:04;5.40;99.90
7704;DHT22;3894;49.700;10.770;2023-12-20T11:42:37;5.40;99.90
7704;DHT22;3894;49.700;10.770;2023-12-20T11:45:03;5.40;99.90
7704;DHT22;3894;49.700;10.770;2023-12-20T11:47:30;5.50;99.90
7704;DHT22;3894;49.700;10.770;2023-12-20T11:49:56;5.50;99.90
7704;DHT22;3894;49.700;10.770;2023-12-20T11:52:22;5.50;99.90
7704;DHT22;3894;49.700;10.770;2023-12-20T11:54:48;5.50;99.90
7704;DHT22;3894;49.700;10.770;2023-12-20T11:57:13;5.50;99.90
7704;DHT22;3894;49.700;10.770;2023-12-20T11:59:39;5.50;99.90
7704;DHT22;3894;49.700;10.770;2023-12-20T12:02:05;5.50;99.90
7704;DHT22;3894;49.700;10.770;2023-12-20T12:04:31;5.60;99.90
7704;DHT22;3894;49.700;10.770;2023-12-20T12:06:57;5.60;99.90
7704;DHT22;3894;49.700;10.770;2023-12-20T12:09:22;5.60;99.90
7704;DHT22;3894;49.700;10.770;2023-12-20T12:11:48;5.50;99.90
7704;DHT22;3894;49.700;10.770;2023-12-20T12:14:14;5.50;99.90
7704;DHT22;3894;49.700;10.770;2023-12-20T12:16:41;5.40;99.90
7704;DHT22;3894;49.700;10.770;2023-12-20T12:19:07;5.40;99.90
7704;DHT22;3894;49.700;10.770;2023-12-20T12:21:33;5.40;99.90
7704;DHT22;3894;49.700;10.770;2023-12-20T12:24:08;5.30;99.90
7704;DHT22;3894;49.700;10.770;2023-12-20T12:26:34;5.30;99.90
7704;DHT22;3894;49.700;10.770;2023-12-20T12:29:00;5.30;99.90
7704;DHT22;3894;49.700;10.770;2023-12-20T12:31:25;5.30;99.90
7704;DHT22;3894;49.700;10.770;2023-12-20T12:33:53;5.30;99.90
7704;DHT22;3894;49.700;10.770;2023-12-20T12:36:19;5.30;99.90
7704;DHT22;3894;49.700;10.770;2023-12-20T12:38:44;5.30;99.90
7704;DHT22;3894;49.700;10.770;2023-12-20T12:41:13;5.30;99.90
7704;DHT22;3894;49.700;10.770;2023-12-20T12:43:38;5.30;99.90
7704;DHT22;3894;49.700;10.770;2023-12-20T12:46:04;5.30;99.90
7704;DHT22;3894;49.700;10.770;2023-12-20T12:48:29;5.30;99.90
7704;DHT22;3894;49.700;10.770;2023-12-20T12:50:55;5.30;99.90
7704;DHT22;3894;49.700;10.770;2023-12-20T12:53:26;5.30;99.90
7704;DHT22;3894;49.700;10.770;2023-12-20T12:55:53;5.30;99.90
7704;DHT22;3894;49.700;10.770;2023-12-20T12:58:19;5.30;99.90
7704;DHT22;3894;49.700;10.770;2023-12-20T13:00:45;5.30;99.90
7704;DHT22;3894;49.700;10.770;2023-12-20T13:03:11;5.30;99.90
7704;DHT22;3894;49.700;10.770;2023-12-20T13:05:37;5.30;99.90
7704;DHT22;3894;49.700;10.770;2023-12-20T13:08:03;5.40;99.90
7704;DHT22;3894;49.700;10.770;2023-12-20T13:10:29;5.30;99.90
7704;DHT22;3894;49.700;10.770;2023-12-20T13:12:54;5.30;99.90
7704;DHT22;3894;49.700;10.770;2023-12-20T13:15:20;5.20;99.90
7704;DHT22;3894;49.700;10.770;2023-12-20T13:17:46;5.20;99.90
7704;DHT22;3894;49.700;10.770;2023-12-20T13:20:12;5.20;99.90
7704;DHT22;3894;49.700;10.770;2023-12-20T13:22:38;5.20;99.90
7704;DHT22;3894;49.700;10.770;2023-12-20T13:25:04;5.20;99.90
7704;DHT22;3894;49.700;10.770;2023-12-20T13:27:30;5.10;99.90
7704;DHT22;3894;49.700;10.770;2023-12-20T13:29:56;5.10;99.90
7704;DHT22;3894;49.700;10.770;2023-12-20T13:32:21;5.10;99.90
7704;DHT22;3894;49.700;10.770;2023-12-20T13:34:47;5.10;99.90
7704;DHT22;3894;49.700;10.770;2023-12-20T13:37:13;5.10;99.90
7704;DHT22;3894;49.700;10.770;2023-12-20T13:39:39;5.10;99.90
7704;DHT22;3894;49.700;10.770;2023-12-20T13:42:06;5.10;99.90
7704;DHT22;3894;49.700;10.770;2023-12-20T13:44:31;5.10;99.90
7704;DHT22;3894;49.700;10.770;2023-12-20T13:46:57;5.10;99.90
7704;DHT22;3894;49.700;10.770;2023-12-20T13:49:23;5.00;99.90
7704;DHT22;3894;49.700;10.770;2023-12-20T13:51:50;5.10;99.90
7704;DHT22;3894;49.700;10.770;2023-12-20T13:54:16;5.10;99.90
7704;DHT22;3894;49.700;10.770;2023-12-20T13:56:45;5.10;99.90
7704;DHT22;3894;49.700;10.770;2023-12-20T13:59:11;5.10;99.90
7704;DHT22;3894;49.700;10.770;2023-12-20T14:01:38;5.10;99.90
7704;DHT22;3894;49.700;10.770;2023-12-20T14:04:03;5.10;99.90
7704;DHT22;3894;49.700;10.770;2023-12-20T14:06:29;5.00;99.90
7704;DHT22;3894;49.700;10.770;2023-12-20T14:08:55;5.10;99.90
7704;DHT22;3894;49.700;10.770;2023-12-20T14:11:21;5.10;99.90
7704;DHT22;3894;49.700;10.770;2023-12-20T14:13:46;5.00;99.90
7704;DHT22;3894;49.700;10.770;2023-12-20T14:16:12;5.00;99.90
7704;DHT22;3894;49.700;10.770;2023-12-20T14:18:38;5.00;99.90
7704;DHT22;3894;49.700;10.770;2023-12-20T14:21:05;5.00;99.90
7704;DHT22;3894;49.700;10.770;2023-12-20T14:23:31;5.00;99.90
7704;DHT22;3894;49.700;10.770;2023-12-20T14:25:59;5.00;99.90
7704;DHT22;3894;49.700;10.770;2023-12-20T14:28:25;5.00;99.90
7704;DHT22;3894;49.700;10.770;2023-12-20T14:30:50;5.00;99.90
7704;DHT22;3894;49.700;10.770;2023-12-20T14:33:16;4.90;99.90
7704;DHT22;3894;49.700;10.770;2023-12-20T14:35:41;4.90;99.90
7704;DHT22;3894;49.700;10.770;2023-12-20T14:38:08;4.90;99.90
7704;DHT22;3894;49.700;10.770;2023-12-20T14:40:33;4.90;99.90
7704;DHT22;3894;49.700;10.770;2023-12-20T14:43:00;4.90;99.90
7704;DHT22;3894;49.700;10.770;2023-12-20T14:45:26;4.90;99.90
7704;DHT22;3894;49.700;10.770;2023-12-20T14:47:53;4.90;99.90
7704;DHT22;3894;49.700;10.770;2023-12-20T14:50:18;4.80;99.90
7704;DHT22;3894;49.700;10.770;2023-12-20T14:52:44;4.80;99.90
7704;DHT22;3894;49.700;10.770;2023-12-20T14:55:11;4.80;99.90
7704;DHT22;3894;49.700;10.770;2023-12-20T14:57:36;4.70;99.90
7704;DHT22;3894;49.700;10.770;2023-12-20T15:00:02;4.70;99.90
7704;DHT22;3894;49.700;10.770;2023-12-20T15:02:28;4.70;99.90
7704;DHT22;3894;49.700;10.770;2023-12-20T15:04:53;4.70;99.90
7704;DHT22;3894;49.700;10.770;2023-12-20T15:07:19;4.60;99.90
7704;DHT22;3894;49.700;10.770;2023-12-20T15:09:46;4.70;99.90
7704;DHT22;3894;49.700;10.770;2023-12-20T15:12:13;4.70;99.90
7704;DHT22;3894;49.700;10.770;2023-12-20T15:14:39;4.70;99.90
7704;DHT22;3894;49.700;10.770;2023-12-20T15:17:04;4.70;99.90
7704;DHT22;3894;49.700;10.770;2023-12-20T15:19:30;4.60;99.90
7704;DHT22;3894;49.700;10.770;2023-12-20T15:21:56;4.60;99.90
7704;DHT22;3894;49.700;10.770;2023-12-20T15:24:24;4.60;99.90
7704;DHT22;3894;49.700;10.770;2023-12-20T15:27:02;4.60;99.90
7704;DHT22;3894;49.700;10.770;2023-12-20T15:29:29;4.60;99.90
7704;DHT22;3894;49.700;10.770;2023-12-20T15:31:54;4.60;99.90
7704;DHT22;3894;49.700;10.770;2023-12-20T15:34:20;4.60;99.90
7704;DHT22;3894;49.700;10.770;2023-12-20T15:36:45;4.60;99.90
7704;DHT22;3894;49.700;10.770;2023-12-20T15:39:11;4.60;99.90
7704;DHT22;3894;49.700;10.770;2023-12-20T15:41:39;4.60;99.90
7704;DHT22;3894;49.700;10.770;2023-12-20T15:44:05;4.60;99.90
7704;DHT22;3894;49.700;10.770;2023-12-20T15:46:31;4.60;99.90
7704;DHT22;3894;49.700;10.770;2023-12-20T15:48:56;4.60;99.90
7704;DHT22;3894;49.700;10.770;2023-12-20T15:51:22;4.50;99.90
7704;DHT22;3894;49.700;10.770;2023-12-20T15:53:48;4.50;99.90
7704;DHT22;3894;49.700;10.770;2023-12-20T15:56:15;4.50;99.90
7704;DHT22;3894;49.700;10.770;2023-12-20T15:58:40;4.50;99.90
7704;DHT22;3894;49.700;10.770;2023-12-20T16:01:06;4.50;99.90
7704;DHT22;3894;49.700;10.770;2023-12-20T16:03:31;4.50;99.90